Time;durP1;ratioP1;P1;durP2;ratioP2;P2;SDS_P1;SDS_P2;PMS_P1;PMS_P2;Temp;Humidity;BMP_temperature;BMP_pressure;BME280_temperature;BME280_humidity;BME280_pressure;Samples;Min_cycle;Max_cycle;Signal;HPM_P1;HPM_P2
2023/08/06 00:00:25;;;;;;;24.40;13.60;;;;;;;19.33;92.33;99237.50;5087713;28;20579;-64
2023/08/06 00:02:55;;;;;;;22.17;12.93;;;;;;;19.34;92.27;99229.59;5084153;28;20651;-65
2023/08/06 00:05:23;;;;;;;22.75;13.82;;;;;;;19.36;92.51;99224.25;5088559;28;20205;-65
2023/08/06 00:07:51;;;;;;;29.83;13.65;;;;;;;19.37;92.22;99223.31;5090846;28;20208;-67
2023/08/06 00:10:19;;;;;;;24.25;12.73;;;;;;;19.38;92.45;99222.41;5088268;28;20208;-63
2023/08/06 00:12:48;;;;;;;21.75;13.63;;;;;;;19.38;92.68;99218.00;5090382;28;20232;-66
2023/08/06 00:15:16;;;;;;;21.45;13.52;;;;;;;19.40;92.44;99223.13;5089752;28;20246;-67
2023/08/06 00:17:44;;;;;;;21.35;13.82;;;;;;;19.36;92.28;99219.88;5088729;28;20291;-63
2023/08/06 00:20:14;;;;;;;20.98;12.98;;;;;;;19.35;92.94;99246.09;5084372;28;20291;-64
2023/08/06 00:22:42;;;;;;;20.30;13.25;;;;;;;19.33;93.49;99258.41;5078404;28;20197;-64
2023/08/06 00:25:10;;;;;;;19.85;12.32;;;;;;;19.31;93.49;99256.72;5087143;28;20709;-64
2023/08/06 00:27:38;;;;;;;18.20;12.48;;;;;;;19.30;93.49;99244.59;5084855;28;20246;-65
2023/08/06 00:30:07;;;;;;;19.52;13.23;;;;;;;19.29;93.71;99249.91;5093986;28;20291;-65
2023/08/06 00:32:35;;;;;;;20.63;12.95;;;;;;;19.30;93.85;99254.22;5089846;28;20253;-64
2023/08/06 00:35:04;;;;;;;17.23;11.82;;;;;;;19.29;93.83;99234.22;5087809;28;20228;-65
2023/08/06 00:37:33;;;;;;;16.58;11.50;;;;;;;19.28;93.53;99212.50;5082770;28;20558;-65
2023/08/06 00:40:01;;;;;;;14.68;11.68;;;;;;;19.24;93.68;99208.41;5089278;28;20204;-65
2023/08/06 00:42:29;;;;;;;14.20;11.02;;;;;;;19.20;93.72;99206.06;5091959;28;20636;-66
2023/08/06 00:44:57;;;;;;;16.27;11.25;;;;;;;19.19;93.30;99225.28;5087754;28;20279;-64
2023/08/06 00:47:25;;;;;;;16.48;10.65;;;;;;;19.11;93.74;99210.09;5081739;28;20687;-67
2023/08/06 00:49:54;;;;;;;13.00;10.73;;;;;;;19.08;93.59;99202.44;5089499;28;20293;-66
2023/08/06 00:52:22;;;;;;;11.68;10.05;;;;;;;19.04;94.03;99198.34;5087172;28;20201;-65
2023/08/06 00:54:51;;;;;;;13.00;10.95;;;;;;;19.03;94.13;99191.41;5081750;28;20385;-66
2023/08/06 00:57:21;;;;;;;13.25;9.43;;;;;;;19.03;94.03;99167.91;5090461;28;20208;-66
2023/08/06 00:59:49;;;;;;;11.75;9.80;;;;;;;19.04;94.09;99162.59;5089738;28;20651;-65
2023/08/06 01:02:17;;;;;;;14.30;10.18;;;;;;;19.05;93.85;99161.66;5091372;28;20223;-64
2023/08/06 01:04:45;;;;;;;11.48;9.77;;;;;;;19.04;93.84;99153.94;5088687;28;20204;-63
2023/08/06 01:07:22;;;;;;;11.75;10.48;;;;;;;19.04;94.10;99146.09;5080618;28;20316;-65
2023/08/06 01:10:01;;;;;;;11.13;9.25;;;;;;;19.03;93.54;99137.41;5090456;28;20655;-66
2023/08/06 01:12:40;;;;;;;12.32;10.00;;;;;;;19.02;93.53;99130.53;5084857;28;20301;-65
2023/08/06 01:15:23;;;;;;;10.50;9.40;;;;;;;19.01;93.49;99117.56;5090082;28;20329;-65
2023/08/06 01:17:51;;;;;;;12.20;9.73;;;;;;;19.02;93.62;99114.03;5091463;28;20239;-64
2023/08/06 01:20:19;;;;;;;10.82;9.82;;;;;;;19.03;93.47;99105.25;5088349;28;20205;-66
2023/08/06 01:22:48;;;;;;;10.55;9.45;;;;;;;19.04;93.70;99101.72;5090385;28;20257;-64
2023/08/06 01:25:17;;;;;;;10.27;9.02;;;;;;;19.05;93.26;99077.28;5088791;28;20246;-66
2023/08/06 01:27:51;;;;;;;10.73;8.80;;;;;;;19.04;93.08;99054.72;5087104;28;20749;-65
2023/08/06 01:30:26;;;;;;;9.88;8.80;;;;;;;19.04;93.25;99046.91;5083566;28;20223;-64
2023/08/06 01:33:01;;;;;;;10.55;8.95;;;;;;;19.02;93.29;99031.31;5090929;28;20596;-64
2023/08/06 01:35:30;;;;;;;10.57;9.45;;;;;;;19.01;93.09;99032.25;5086671;28;20199;-65
2023/08/06 01:38:00;;;;;;;9.90;9.00;;;;;;;19.00;93.16;99027.09;5084359;28;20197;-66
2023/08/06 01:40:29;;;;;;;10.27;9.20;;;;;;;19.02;93.53;99015.66;5097671;28;20254;-64
2023/08/06 01:42:57;;;;;;;10.63;9.52;;;;;;;19.01;93.47;99007.91;5088637;28;20599;-65
2023/08/06 01:45:25;;;;;;;10.00;9.00;;;;;;;19.01;93.20;99007.91;5093519;28;20205;-66
2023/08/06 01:47:53;;;;;;;12.02;8.75;;;;;;;19.00;93.32;98995.78;5093520;28;20253;-64
2023/08/06 01:50:21;;;;;;;10.05;9.05;;;;;;;18.99;93.25;98989.72;5093174;28;20204;-65
2023/08/06 01:52:49;;;;;;;9.43;8.52;;;;;;;18.98;93.03;98984.63;5095253;28;20713;-68
2023/08/06 01:55:18;;;;;;;10.20;8.98;;;;;;;18.94;93.54;98975.31;5086128;28;20224;-65
2023/08/06 01:57:46;;;;;;;9.27;8.05;;;;;;;18.91;93.77;98968.50;5086235;28;20246;-66
2023/08/06 02:00:14;;;;;;;10.60;9.10;;;;;;;18.90;93.95;98972.03;5085649;28;20228;-65
2023/08/06 02:02:42;;;;;;;10.40;8.27;;;;;;;18.91;94.18;98978.09;5091483;28;20208;-66
2023/08/06 02:05:10;;;;;;;10.23;9.00;;;;;;;18.91;94.26;98986.75;5092398;28;20219;-64
2023/08/06 02:07:38;;;;;;;11.10;9.65;;;;;;;18.86;94.53;98980.16;5093069;28;20239;-64
2023/08/06 02:10:07;;;;;;;10.77;8.98;;;;;;;18.88;94.90;98976.50;5093482;28;20203;-65
2023/08/06 02:12:36;;;;;;;10.48;9.10;;;;;;;18.87;94.70;98966.19;5087966;28;20289;-64
2023/08/06 02:15:05;;;;;;;11.70;8.95;;;;;;;18.85;95.02;98971.47;5092022;28;20197;-64
2023/08/06 02:17:33;;;;;;;9.27;8.27;;;;;;;18.86;95.08;98967.94;5085816;28;20546;-62
2023/08/06 02:20:01;;;;;;;9.65;8.60;;;;;;;18.87;94.98;98951.34;5086640;28;20238;-64
2023/08/06 02:22:29;;;;;;;10.73;8.77;;;;;;;18.88;95.17;98944.34;5092191;28;20197;-65
2023/08/06 02:24:57;;;;;;;10.63;9.50;;;;;;;18.88;95.30;98944.34;5092694;28;20212;-64
2023/08/06 02:27:25;;;;;;;9.50;8.50;;;;;;;18.89;95.53;98938.19;5093550;28;20218;-65
2023/08/06 02:29:54;;;;;;;11.07;8.75;;;;;;;18.91;95.33;98933.72;5088349;28;20229;-63
2023/08/06 02:32:22;;;;;;;9.00;8.10;;;;;;;18.89;95.47;98940.81;5083180;28;20200;-65
2023/08/06 02:34:50;;;;;;;10.23;9.07;;;;;;;18.90;95.86;98938.13;5093532;28;20603;-62
2023/08/06 02:37:18;;;;;;;10.38;8.90;;;;;;;18.89;95.63;98943.41;5088885;28;20740;-66
2023/08/06 02:39:46;;;;;;;10.68;9.32;;;;;;;18.89;95.88;98940.81;5091772;28;20209;-64
2023/08/06 02:42:14;;;;;;;9.52;8.40;;;;;;;18.91;95.80;98944.16;5091656;28;20647;-65
2023/08/06 02:44:42;;;;;;;10.70;9.05;;;;;;;18.91;96.18;98933.72;5091817;28;20685;-66
2023/08/06 02:47:11;;;;;;;11.63;9.05;;;;;;;18.94;95.72;98930.94;5091917;28;20666;-65
2023/08/06 02:49:39;;;;;;;10.38;8.45;;;;;;;18.92;95.95;98925.78;5092847;28;20254;-62
2023/08/06 02:52:08;;;;;;;10.32;9.25;;;;;;;18.94;95.92;98929.16;5089285;28;20200;-64
2023/08/06 02:54:36;;;;;;;9.57;8.32;;;;;;;18.95;95.55;98928.19;5087140;28;20686;-63
2023/08/06 02:57:04;;;;;;;11.05;9.10;;;;;;;18.94;96.07;98923.09;5076603;28;20675;-62
2023/08/06 02:59:32;;;;;;;11.40;8.88;;;;;;;18.94;96.38;98918.69;5085997;28;20258;-65
2023/08/06 03:02:00;;;;;;;10.45;9.07;;;;;;;18.96;96.33;98916.84;5085496;28;20205;-67
2023/08/06 03:04:29;;;;;;;11.23;9.48;;;;;;;18.98;96.39;98912.34;5081677;28;20205;-65
2023/08/06 03:06:57;;;;;;;10.63;9.35;;;;;;;18.99;96.34;98905.34;5075876;28;20207;-62
2023/08/06 03:09:25;;;;;;;12.40;9.63;;;;;;;19.00;96.66;98891.34;5089356;28;20577;-64
2023/08/06 03:11:53;;;;;;;11.45;9.65;;;;;;;19.01;96.32;98880.00;5092708;28;20200;-64
2023/08/06 03:14:21;;;;;;;11.32;10.13;;;;;;;19.03;96.24;98881.56;5087306;28;20259;-63
2023/08/06 03:16:49;;;;;;;11.98;10.50;;;;;;;19.02;96.14;98874.66;5087625;28;20204;-65
2023/08/06 03:19:17;;;;;;;11.68;10.15;;;;;;;19.02;96.46;98873.81;5085176;28;20699;-66
2023/08/06 03:21:46;;;;;;;12.35;10.77;;;;;;;19.02;96.47;98863.38;5091704;28;20548;-65
2023/08/06 03:24:14;;;;;;;12.98;10.50;;;;;;;19.04;96.78;98861.53;5094806;28;20233;-64
2023/08/06 03:26:42;;;;;;;12.95;10.57;;;;;;;19.04;96.54;98867.59;5090808;28;20663;-64
2023/08/06 03:29:10;;;;;;;16.15;11.05;;;;;;;19.06;96.45;98850.03;5091039;28;20273;-65
2023/08/06 03:31:38;;;;;;;13.63;11.55;;;;;;;19.08;96.60;98860.38;5089803;28;20200;-64
2023/08/06 03:34:06;;;;;;;15.05;11.93;;;;;;;19.09;96.73;98853.38;5084746;28;20599;-66
2023/08/06 03:36:34;;;;;;;14.13;11.65;;;;;;;19.09;96.69;98848.16;5086303;28;20208;-65
2023/08/06 03:39:04;;;;;;;13.98;12.50;;;;;;;19.09;96.74;98832.50;5085809;28;20197;-63
2023/08/06 03:41:32;;;;;;;16.05;11.57;;;;;;;19.10;96.68;98824.56;5088414;28;20208;-64
2023/08/06 03:44:02;;;;;;;13.35;11.90;;;;;;;19.10;96.90;98819.31;5088373;28;20229;-66
2023/08/06 03:46:32;;;;;;;17.13;11.88;;;;;;;19.13;96.67;98813.91;5092547;28;20201;-64
2023/08/06 03:49:00;;;;;;;14.88;12.77;;;;;;;19.12;96.58;98804.41;5088135;28;20228;-64
2023/08/06 03:51:28;;;;;;;15.63;12.50;;;;;;;19.15;96.64;98795.53;5084698;28;20216;-65
2023/08/06 03:53:56;;;;;;;14.95;13.35;;;;;;;19.17;96.81;98798.88;5091742;28;20201;-66
2023/08/06 03:56:25;;;;;;;15.40;12.68;;;;;;;19.18;96.53;98790.94;5090176;28;20232;-65
2023/08/06 03:58:53;;;;;;;17.25;12.98;;;;;;;19.19;96.73;98787.41;5092202;28;20211;-64
2023/08/06 04:01:21;;;;;;;18.58;14.70;;;;;;;19.19;96.81;98779.56;5087619;28;20192;-65
2023/08/06 04:03:49;;;;;;;15.75;13.27;;;;;;;19.21;96.70;98769.84;5080108;28;20201;-64
2023/08/06 04:06:17;;;;;;;16.65;13.13;;;;;;;19.23;96.60;98773.19;5077671;28;20723;-64
2023/08/06 04:08:45;;;;;;;16.40;13.70;;;;;;;19.23;96.42;98762.75;5084062;28;20221;-65
2023/08/06 04:11:13;;;;;;;16.50;13.55;;;;;;;19.26;96.60;98764.31;5087390;28;20287;-65
2023/08/06 04:13:44;;;;;;;16.08;13.63;;;;;;;19.25;96.68;98749.56;5091046;28;20197;-66
2023/08/06 04:16:14;;;;;;;15.52;13.88;;;;;;;19.26;96.91;98751.25;5091675;28;20245;-64
2023/08/06 04:18:42;;;;;;;19.35;15.02;;;;;;;19.27;96.89;98745.94;5089949;28;20318;-63
2023/08/06 04:21:10;;;;;;;17.52;13.82;;;;;;;19.29;96.68;98746.66;5091203;28;20632;-65
2023/08/06 04:23:38;;;;;;;18.25;15.57;;;;;;;19.27;96.72;98742.47;5082420;28;20277;-65
2023/08/06 04:26:07;;;;;;;19.85;15.55;;;;;;;19.30;96.86;98744.88;5086863;28;20655;-66
2023/08/06 04:28:34;;;;;;;18.98;16.98;;;;;;;19.34;96.69;98732.47;5081453;28;20240;-66
2023/08/06 04:31:04;;;;;;;18.02;15.25;;;;;;;19.35;96.88;98739.34;5083193;28;20253;-64
2023/08/06 04:33:32;;;;;;;18.45;15.85;;;;;;;19.37;96.82;98732.22;5080425;28;20200;-65
2023/08/06 04:36:00;;;;;;;17.45;14.63;;;;;;;19.39;96.71;98735.56;5089671;28;20200;-65
2023/08/06 04:38:28;;;;;;;18.35;15.02;;;;;;;19.43;96.47;98718.75;5082272;28;20197;-64
2023/08/06 04:40:56;;;;;;;17.33;15.52;;;;;;;19.46;96.13;98726.38;5083435;28;20258;-64
2023/08/06 04:43:24;;;;;;;19.95;16.58;;;;;;;19.48;96.35;98719.28;5090211;28;20232;-64
2023/08/06 04:45:55;;;;;;;17.55;15.15;;;;;;;19.50;96.13;98720.00;5089670;28;20210;-65
2023/08/06 04:48:25;;;;;;;21.88;15.18;;;;;;;19.54;95.68;98718.84;5090230;28;20253;-65
2023/08/06 04:50:53;;;;;;;17.83;15.13;;;;;;;19.56;95.79;98709.13;5094515;28;20222;-63
2023/08/06 04:53:21;;;;;;;17.75;15.07;;;;;;;19.63;95.72;98706.97;5085619;28;20709;-64
2023/08/06 04:55:48;;;;;;;17.20;15.15;;;;;;;19.67;94.64;98708.41;5090942;28;20258;-64
2023/08/06 04:58:16;;;;;;;16.65;14.18;;;;;;;19.71;95.01;98699.41;5082302;28;20203;-65
2023/08/06 05:00:44;;;;;;;17.85;14.60;;;;;;;19.74;94.31;98700.03;5089245;28;20211;-64
2023/08/06 05:03:12;;;;;;;18.02;14.85;;;;;;;19.79;94.30;98694.47;5096214;28;20728;-65
2023/08/06 05:05:42;;;;;;;18.77;15.15;;;;;;;19.85;94.18;98687.97;5092277;28;20657;-66
2023/08/06 05:08:16;;;;;;;15.07;13.57;;;;;;;19.91;93.45;98684.91;5087334;28;20201;-64
2023/08/06 05:10:45;;;;;;;16.80;13.70;;;;;;;20.02;93.64;98687.59;5091543;28;20623;-63
2023/08/06 05:13:13;;;;;;;15.40;13.70;;;;;;;20.08;92.63;98661.00;5092478;28;20201;-63
2023/08/06 05:15:42;;;;;;;15.43;13.52;;;;;;;20.20;91.44;98667.94;5088044;28;20522;-63
2023/08/06 05:18:11;;;;;;;15.43;13.77;;;;;;;20.32;91.17;98662.75;5089093;28;20246;-64
2023/08/06 05:20:40;;;;;;;14.40;12.90;;;;;;;20.40;90.54;98661.25;5093296;28;20197;-64
2023/08/06 05:23:10;;;;;;;14.85;13.23;;;;;;;20.53;89.61;98666.44;5093875;28;20211;-64
2023/08/06 05:25:38;;;;;;;16.23;13.20;;;;;;;20.62;88.38;98665.75;5088347;28;20207;-65
2023/08/06 05:28:06;;;;;;;15.00;12.95;;;;;;;20.72;88.17;98661.47;5091723;28;20208;-62
2023/08/06 05:30:37;;;;;;;14.85;11.63;;;;;;;20.89;88.02;98656.78;5089651;28;20235;-63
2023/08/06 05:33:06;;;;;;;15.30;12.23;;;;;;;21.08;87.44;98651.78;5094338;28;20200;-66
2023/08/06 05:35:34;;;;;;;13.88;12.48;;;;;;;21.27;86.25;98652.97;5090818;28;20287;-63
2023/08/06 05:38:02;;;;;;;13.00;11.80;;;;;;;21.45;85.03;98641.91;5083047;28;20208;-64
2023/08/06 05:40:34;;;;;;;14.02;11.38;;;;;;;21.62;83.79;98642.38;5094436;28;20570;-63
2023/08/06 05:43:02;;;;;;;12.07;10.80;;;;;;;21.76;83.06;98636.00;5088530;28;20204;-64
2023/08/06 05:45:30;;;;;;;12.25;11.02;;;;;;;21.93;81.63;98628.47;5089002;28;20210;-65
2023/08/06 05:47:58;;;;;;;14.05;12.50;;;;;;;22.15;80.88;98621.50;5089070;28;20208;-63
2023/08/06 05:50:26;;;;;;;11.43;10.40;;;;;;;22.36;78.87;98617.13;5093321;28;20624;-63
2023/08/06 05:52:54;;;;;;;12.25;10.57;;;;;;;22.58;77.77;98617.97;5094952;28;20242;-63
2023/08/06 05:55:23;;;;;;;12.63;10.13;;;;;;;22.89;76.54;98613.56;5093414;28;20197;-64
2023/08/06 05:57:52;;;;;;;10.13;9.07;;;;;;;23.22;74.54;98604.59;5094575;28;20212;-64
2023/08/06 06:00:23;;;;;;;10.80;9.75;;;;;;;23.63;72.72;98600.97;5085186;28;20290;-66
2023/08/06 06:02:51;;;;;;;8.95;8.15;;;;;;;24.23;69.86;98597.41;5096972;28;20201;-65
2023/08/06 06:05:19;;;;;;;8.95;7.78;;;;;;;24.92;66.67;98598.97;5090061;28;20270;-64
2023/08/06 06:07:47;;;;;;;8.57;7.60;;;;;;;25.73;63.74;98596.50;5092098;28;20236;-63
2023/08/06 06:10:15;;;;;;;8.32;7.60;;;;;;;26.50;60.03;98601.16;5092149;28;20224;-66
2023/08/06 06:12:43;;;;;;;8.35;6.97;;;;;;;27.52;57.28;98588.16;5088139;28;20748;-64
2023/08/06 06:15:12;;;;;;;7.55;6.85;;;;;;;28.31;53.07;98584.09;5090462;28;20201;-65
2023/08/06 06:17:40;;;;;;;8.45;7.30;;;;;;;28.96;52.41;98577.88;5093749;28;20236;-66
2023/08/06 06:20:09;;;;;;;9.68;6.75;;;;;;;29.82;49.69;98579.66;5084123;28;20232;-64
2023/08/06 06:22:37;;;;;;;7.25;6.47;;;;;;;30.56;47.13;98574.56;5089146;28;20208;-65
2023/08/06 06:25:06;;;;;;;8.68;6.28;;;;;;;30.86;44.35;98574.59;5088835;28;20536;-64
2023/08/06 06:27:34;;;;;;;7.30;6.57;;;;;;;31.07;45.93;98569.38;5087592;28;20221;-63
2023/08/06 06:30:02;;;;;;;7.22;6.45;;;;;;;31.58;43.93;98555.25;5090017;28;20258;-65
2023/08/06 06:32:31;;;;;;;8.02;6.40;;;;;;;32.03;43.16;98559.41;5089767;28;20212;-63
2023/08/06 06:34:59;;;;;;;6.78;6.13;;;;;;;32.28;42.06;98551.00;5085975;28;20221;-66
2023/08/06 06:37:27;;;;;;;7.53;6.35;;;;;;;32.66;41.00;98547.00;5091166;28;20563;-64
2023/08/06 06:39:55;;;;;;;7.10;5.80;;;;;;;33.60;39.86;98553.56;5087034;28;20632;-65
2023/08/06 06:42:23;;;;;;;6.65;5.47;;;;;;;33.95;38.27;98545.38;5091710;28;20204;-63
2023/08/06 06:44:51;;;;;;;7.97;5.90;;;;;;;34.25;36.73;98537.81;5089421;28;20211;-64
2023/08/06 06:47:19;;;;;;;11.60;5.60;;;;;;;34.43;36.66;98540.69;5089831;28;20250;-65
2023/08/06 06:49:48;;;;;;;7.00;6.10;;;;;;;34.68;35.94;98540.03;5089746;28;20220;-65
2023/08/06 06:52:16;;;;;;;8.25;5.57;;;;;;;35.40;35.05;98530.91;5093253;28;20208;-65
2023/08/06 06:54:44;;;;;;;8.65;5.50;;;;;;;36.34;33.72;98523.84;5089648;28;20559;-66
2023/08/06 06:57:12;;;;;;;8.02;5.07;;;;;;;37.29;31.47;98530.66;5092008;28;20295;-66
2023/08/06 06:59:40;;;;;;;7.22;5.03;;;;;;;37.65;30.69;98533.25;5087823;28;20208;-64
2023/08/06 07:02:08;;;;;;;5.70;4.90;;;;;;;37.95;30.66;98535.09;5090322;28;20300;-65
2023/08/06 07:04:35;;;;;;;5.97;5.35;;;;;;;38.48;29.33;98530.69;5085649;28;20205;-66
2023/08/06 07:07:05;;;;;;;11.70;5.43;;;;;;;38.95;28.58;98531.44;5088768;28;20204;-65
2023/08/06 07:09:32;;;;;;;6.57;5.03;;;;;;;39.33;27.55;98528.19;5087454;28;20657;-66
2023/08/06 07:12:01;;;;;;;6.28;5.15;;;;;;;39.59;27.15;98520.56;5090270;28;20223;-65
2023/08/06 07:14:29;;;;;;;9.63;5.22;;;;;;;39.74;27.20;98528.94;5089410;28;20214;-63
2023/08/06 07:16:57;;;;;;;7.63;5.47;;;;;;;39.66;26.92;98521.22;5087505;28;20217;-64
2023/08/06 07:19:25;;;;;;;7.43;5.00;;;;;;;38.68;27.59;98531.16;5084721;28;20313;-63
2023/08/06 07:21:53;;;;;;;6.40;5.20;;;;;;;36.29;31.35;98532.56;5083024;28;20560;-64
2023/08/06 07:24:23;;;;;;;8.70;5.43;;;;;;;35.27;34.03;98531.78;5084626;28;20673;-63
2023/08/06 07:26:52;;;;;;;8.10;5.85;;;;;;;35.36;33.79;98532.38;5088394;28;20604;-65
2023/08/06 07:29:22;;;;;;;5.50;5.10;;;;;;;36.10;33.02;98528.19;5085462;28;20211;-64
2023/08/06 07:31:50;;;;;;;8.80;5.63;;;;;;;36.73;32.00;98529.88;5089319;28;20379;-65
2023/08/06 07:34:19;;;;;;;10.18;5.50;;;;;;;37.33;31.61;98529.16;5087786;28;20238;-64
2023/08/06 07:36:47;;;;;;;7.05;5.13;;;;;;;38.26;29.76;98523.22;5081504;28;20208;-66
2023/08/06 07:39:16;;;;;;;9.02;5.80;;;;;;;39.10;27.99;98528.25;5092045;28;20291;-65
2023/08/06 07:41:46;;;;;;;6.53;4.88;;;;;;;39.55;27.20;98522.94;5081977;28;20201;-66
2023/08/06 07:44:14;;;;;;;5.60;5.10;;;;;;;39.19;27.53;98523.31;5090777;28;20201;-65
2023/08/06 07:46:43;;;;;;;7.40;5.15;;;;;;;37.72;29.72;98515.16;5090308;28;20196;-65
2023/08/06 07:49:11;;;;;;;6.88;5.25;;;;;;;36.20;32.34;98519.66;5088201;28;20204;-65
2023/08/06 07:51:39;;;;;;;7.45;5.55;;;;;;;34.87;33.98;98525.75;5081721;28;20220;-64
2023/08/06 07:54:07;;;;;;;11.52;5.38;;;;;;;34.47;35.19;98525.03;5080240;28;20200;-63
2023/08/06 07:56:36;;;;;;;7.75;5.55;;;;;;;34.64;35.27;98522.75;5079375;28;20212;-63
2023/08/06 07:59:06;;;;;;;9.90;5.57;;;;;;;35.81;33.59;98521.59;5089577;28;20201;-65
2023/08/06 08:01:33;;;;;;;7.68;5.05;;;;;;;36.60;31.28;98513.91;5087890;28;20562;-65
2023/08/06 08:04:02;;;;;;;10.02;5.38;;;;;;;37.12;30.76;98506.31;5089690;28;20199;-65
2023/08/06 08:06:29;;;;;;;11.02;5.43;;;;;;;37.36;29.58;98513.41;5089551;28;20259;-61
2023/08/06 08:08:57;;;;;;;13.63;5.60;;;;;;;37.55;30.66;98500.75;5089560;28;20206;-62
2023/08/06 08:11:27;;;;;;;7.38;5.97;;;;;;;38.09;28.99;98496.19;5089468;28;20227;-64
2023/08/06 08:13:55;;;;;;;12.77;5.30;;;;;;;38.65;28.28;98500.13;5089203;28;20207;-59
2023/08/06 08:16:24;;;;;;;8.48;5.68;;;;;;;39.24;27.73;98499.13;5091418;28;20207;-60
2023/08/06 08:18:52;;;;;;;7.35;5.70;;;;;;;39.35;26.94;98491.03;5093480;28;20233;-62
2023/08/06 08:21:20;;;;;;;9.68;5.35;;;;;;;39.37;27.34;98485.41;5090632;28;20204;-60
2023/08/06 08:23:51;;;;;;;6.00;5.40;;;;;;;39.61;26.93;98491.47;5088343;28;20219;-61
2023/08/06 08:26:18;;;;;;;5.93;5.30;;;;;;;39.59;27.41;98485.50;5081356;28;20635;-63
2023/08/06 08:28:47;;;;;;;8.45;5.43;;;;;;;39.53;27.03;98481.91;5089196;28;20822;-59
2023/08/06 08:31:15;;;;;;;6.90;5.75;;;;;;;38.79;28.11;98495.28;5091046;28;20213;-66
2023/08/06 08:33:44;;;;;;;7.15;5.28;;;;;;;37.87;29.33;98487.00;5085838;28;20576;-60
2023/08/06 08:36:12;;;;;;;6.68;5.85;;;;;;;36.83;31.54;98487.22;5088007;28;20669;-61
2023/08/06 08:38:41;;;;;;;8.82;5.70;;;;;;;35.41;33.68;98478.16;5087142;28;20211;-60
2023/08/06 08:41:11;;;;;;;8.18;5.72;;;;;;;34.17;36.38;98476.53;5087337;28;20219;-60
2023/08/06 08:43:41;;;;;;;9.05;5.93;;;;;;;33.25;38.57;98478.06;5087157;28;20670;-65
2023/08/06 08:46:12;;;;;;;6.32;5.72;;;;;;;32.38;39.98;98476.84;5088911;28;20689;-65
2023/08/06 08:48:41;;;;;;;6.35;5.35;;;;;;;31.72;41.75;98480.63;5087331;28;20200;-61
2023/08/06 08:51:12;;;;;;;9.45;6.40;;;;;;;31.21;42.39;98480.72;5090714;28;20704;-63
2023/08/06 08:53:42;;;;;;;9.38;5.63;;;;;;;30.77;43.05;98484.28;5092389;28;20652;-63
2023/08/06 08:56:13;;;;;;;9.02;5.68;;;;;;;30.56;44.29;98477.03;5080586;28;20562;-58
2023/08/06 08:58:41;;;;;;;8.15;6.68;;;;;;;30.47;44.92;98477.31;5086371;28;20228;-59
2023/08/06 09:01:10;;;;;;;7.03;6.03;;;;;;;30.43;44.63;98471.53;5077059;28;20288;-59
2023/08/06 09:03:39;;;;;;;8.43;6.00;;;;;;;30.51;44.60;98462.63;5084397;28;20216;-60
2023/08/06 09:06:11;;;;;;;6.13;5.63;;;;;;;30.58;44.90;98457.41;5089056;28;20196;-60
2023/08/06 09:08:48;;;;;;;5.80;5.15;;;;;;;30.53;45.44;98457.97;5086112;28;20211;-59
2023/08/06 09:11:17;;;;;;;8.35;5.85;;;;;;;30.37;45.69;98456.31;5087896;28;20212;-60
2023/08/06 09:13:46;;;;;;;11.60;5.88;;;;;;;30.32;46.31;98454.22;5084494;28;20201;-66
2023/08/06 09:16:14;;;;;;;6.80;5.45;;;;;;;30.44;46.16;98451.09;5090118;28;20197;-64
2023/08/06 09:18:42;;;;;;;7.45;5.65;;;;;;;30.52;45.42;98443.84;5091019;28;20241;-64
2023/08/06 09:21:16;;;;;;;6.25;5.68;;;;;;;30.62;45.54;98446.22;5083793;28;20231;-67
2023/08/06 09:23:45;;;;;;;6.63;5.88;;;;;;;30.73;44.01;98437.78;5084841;28;20205;-64
2023/08/06 09:26:14;;;;;;;6.07;5.45;;;;;;;31.14;43.76;98437.22;5086102;28;20201;-63
2023/08/06 09:28:43;;;;;;;7.72;5.78;;;;;;;31.80;42.72;98428.22;5081437;28;20208;-60
2023/08/06 09:31:11;;;;;;;7.82;4.70;;;;;;;32.41;40.52;98423.16;5080104;28;20307;-65
2023/08/06 09:33:39;;;;;;;8.15;4.78;;;;;;;32.74;39.95;98423.28;5085059;28;20208;-65
2023/08/06 09:36:11;;;;;;;6.63;5.07;;;;;;;32.40;40.61;98430.34;5081979;28;20571;-70
2023/08/06 09:38:40;;;;;;;6.18;5.28;;;;;;;31.79;40.60;98423.94;5084362;28;20205;-63
2023/08/06 09:41:09;;;;;;;9.05;5.30;;;;;;;31.22;42.90;98423.81;5087317;28;20639;-63
2023/08/06 09:43:42;;;;;;;5.47;4.97;;;;;;;31.03;42.83;98427.09;5084132;28;20655;-61
2023/08/06 09:46:16;;;;;;;9.98;5.22;;;;;;;30.85;43.69;98432.00;5090024;28;20201;-63
2023/08/06 09:48:47;;;;;;;7.75;5.22;;;;;;;30.68;44.01;98426.88;5084177;28;20662;-62
2023/08/06 09:51:16;;;;;;;5.68;5.10;;;;;;;30.51;43.85;98412.97;5089293;28;20735;-61
2023/08/06 09:53:44;;;;;;;7.85;5.03;;;;;;;30.20;44.59;98423.81;5089154;28;20208;-63
2023/08/06 09:56:16;;;;;;;5.75;4.90;;;;;;;30.14;44.96;98424.50;5090440;28;20200;-63
2023/08/06 09:58:48;;;;;;;6.78;5.13;;;;;;;30.24;45.07;98414.44;5085206;28;20295;-62
2023/08/06 10:01:18;;;;;;;7.35;4.75;;;;;;;30.51;43.66;98404.16;5096751;28;20212;-61
2023/08/06 10:03:48;;;;;;;6.15;4.93;;;;;;;31.06;42.97;98397.44;5093803;28;20663;-62
2023/08/06 10:06:16;;;;;;;8.07;4.93;;;;;;;31.44;41.87;98389.22;5090024;28;20200;-62
2023/08/06 10:08:44;;;;;;;5.60;4.80;;;;;;;32.01;40.90;98390.91;5090067;28;20287;-62
2023/08/06 10:11:15;;;;;;;7.38;4.80;;;;;;;32.76;39.46;98383.06;5085906;28;20234;-62
2023/08/06 10:13:44;;;;;;;7.43;4.45;;;;;;;33.47;37.73;98383.44;5081130;28;20200;-61
2023/08/06 10:16:12;;;;;;;5.55;4.95;;;;;;;33.67;36.62;98386.09;5084258;28;20208;-65
2023/08/06 10:18:41;;;;;;;6.53;4.38;;;;;;;33.65;36.10;98380.97;5091563;28;20232;-62
2023/08/06 10:21:09;;;;;;;5.22;4.68;;;;;;;34.06;36.63;98393.28;5093451;28;20213;-62
2023/08/06 10:23:41;;;;;;;5.80;4.03;;;;;;;34.72;34.60;98378.03;5092748;28;20228;-61
2023/08/06 10:26:09;;;;;;;5.22;4.63;;;;;;;35.23;33.92;98361.06;5092531;28;20204;-61
2023/08/06 10:28:39;;;;;;;5.85;4.30;;;;;;;35.64;33.07;98360.50;5080394;28;20279;-62
2023/08/06 10:31:07;;;;;;;8.13;4.20;;;;;;;36.30;32.03;98353.66;5092561;28;20197;-62
2023/08/06 10:33:44;;;;;;;7.00;4.65;;;;;;;36.65;30.69;98355.72;5090248;28;20213;-62
2023/08/06 10:36:12;;;;;;;4.45;4.07;;;;;;;36.91;30.15;98349.97;5091620;28;20235;-61
2023/08/06 10:38:47;;;;;;;6.05;4.15;;;;;;;36.54;30.67;98353.81;5092937;28;20204;-62
2023/08/06 10:41:28;;;;;;;4.32;3.88;;;;;;;36.03;31.92;98355.84;5092807;28;20203;-62
2023/08/06 10:44:07;;;;;;;6.25;4.10;;;;;;;35.21;32.36;98347.91;5089983;28;20211;-61
2023/08/06 10:46:35;;;;;;;6.22;4.57;;;;;;;34.12;33.87;98344.31;5088026;28;20200;-61
2023/08/06 10:49:04;;;;;;;5.85;3.92;;;;;;;33.21;35.83;98343.34;5091490;28;20232;-60
2023/08/06 10:51:32;;;;;;;5.53;4.10;;;;;;;32.87;36.95;98347.81;5084442;28;20295;-61
2023/08/06 10:54:00;;;;;;;6.53;4.30;;;;;;;33.41;35.99;98344.19;5089811;28;20240;-62
2023/08/06 10:56:28;;;;;;;7.57;4.50;;;;;;;33.46;35.85;98341.72;5086196;28;20200;-62
2023/08/06 10:58:57;;;;;;;6.13;4.63;;;;;;;33.24;36.24;98335.75;5092393;28;20229;-60
2023/08/06 11:01:29;;;;;;;6.13;4.35;;;;;;;33.13;36.23;98333.69;5086771;28;20277;-62
2023/08/06 11:04:02;;;;;;;7.75;4.40;;;;;;;32.71;36.93;98328.50;5081550;28;20279;-61
2023/08/06 11:06:30;;;;;;;4.80;3.72;;;;;;;32.27;37.86;98330.78;5088838;28;20204;-61
2023/08/06 11:08:58;;;;;;;6.30;4.88;;;;;;;31.98;38.73;98322.03;5081562;28;20200;-61
2023/08/06 11:11:26;;;;;;;4.35;3.95;;;;;;;31.66;38.93;98316.28;5092148;28;20227;-60
2023/08/06 11:13:54;;;;;;;5.18;4.00;;;;;;;31.20;39.28;98311.41;5082683;28;20741;-62
2023/08/06 11:16:24;;;;;;;5.13;3.95;;;;;;;30.93;40.71;98306.88;5085855;28;20533;-62
2023/08/06 11:18:54;;;;;;;8.25;4.40;;;;;;;31.09;40.35;98306.63;5080313;28;20252;-64
2023/08/06 11:21:24;;;;;;;6.97;3.97;;;;;;;31.73;39.08;98298.50;5092548;28;20211;-60
2023/08/06 11:23:52;;;;;;;6.13;3.85;;;;;;;32.57;37.70;98286.81;5089371;28;20207;-64
2023/08/06 11:26:21;;;;;;;5.65;3.40;;;;;;;32.56;36.68;98282.50;5087347;28;20643;-63
2023/08/06 11:28:49;;;;;;;4.82;4.30;;;;;;;32.10;37.78;98288.47;5071872;28;20616;-62
2023/08/06 11:31:20;;;;;;;6.25;3.78;;;;;;;31.51;38.70;98283.63;5075093;28;20641;-62
2023/08/06 11:33:49;;;;;;;5.88;3.95;;;;;;;30.91;40.24;98287.63;5084291;28;20220;-61